Saint Peters, Prince Edward Island

1:28 PM AST on February 12, 2016 (GMT -0400)
Dingwells Mills | | Change Station
CLOSE
Current Station
Personal Weather Station
Location: Saint Peters Bay, PRINCE EDWARD ISLAND
Elevation: 26 ft
Nearby Weather Stations

Elev 26 ft 46.36 °N, 62.43 °W | Updated 3 seconds ago

Mostly Cloudy
Mostly Cloudy
16.8 °F
Feels Like 6 °F
N
9.0
Wind Variable Wind from NNW
Gusts 19.0 mph

Today is forecast to be nearly the same temperature as yesterday.

Today
High -- | Low -- °F
--% Chance of Precip.
Yesterday
High -- | Low -- °F
Precip. -- in
Pressure 29.86 in
Visibility 15.0 miles
Clouds Mostly Cloudy 2200 ft
Windchill 6 °F
Dew Point 7 °F
Humidity 66%
Rainfall 0.00 in
Snow Depth Not available.
7:19 AM 5:30 PM
Waxing Crescent, 22% visible
METAR CYYG 121700Z 28013G20KT 15SM BKN022 M13/M19 A2984 RMK SC5 SLP110
Pressure 29.86 in
Visibility 15.0 miles
Clouds Mostly Cloudy 2200 ft
Windchill 6 °F
Dew Point 7 °F
Humidity 66%
Rainfall 0.00 in
Snow Depth Not available.
7:19 AM 5:30 PM
Waxing Crescent, 22% visible
METAR CYYG 121700Z 28013G20KT 15SM BKN022 M13/M19 A2984 RMK SC5 SLP110

10-Day Weather Forecast

No radar image for this location.
×

Almanac

Astronomy

Feb. 12, 2016 Rise Set
Actual Time
Civil Twilight
Nautical Twilight
Astronomical Twilight
Moon
Length of Visible Light
Length of Day
Tomorrow will be .
, % of the Moon is Illuminated

Today's Extremes

Country Highs Country Lows

Community

WunderPhotos

Upload Photos

1,892,353 photos uploaded!

WunderBlog® & News

Nearby

Air Quality

  Air Quality AQ Index Pollutant
Not available.

Snow Depth

Station Depth Elevation

Earthquake Activity

City Distance Mag. Time & Date
Minimum magnitude displayed is 2.5.

Coastal Water Temperatures

Place Temperature

Stations

Nearby Weather Stations

Station Location Temp. Windchill Dew Point Humidity Wind Precip. Elev Updated Type
                   

Watches & Warnings

There are currently no watches in effect.